createdAt,value
2017-09-14T00:00:29.180Z,0
2017-09-14T00:01:09.698Z,0
2017-09-14T00:01:50.213Z,0
2017-09-14T00:02:30.725Z,0
2017-09-14T00:03:11.230Z,0
2017-09-14T00:03:51.764Z,0
2017-09-14T00:04:32.278Z,0
2017-09-14T00:05:12.777Z,0
2017-09-14T00:05:53.283Z,0
2017-09-14T00:06:33.797Z,0
2017-09-14T00:07:14.339Z,0
2017-09-14T00:07:54.806Z,0
2017-09-14T00:08:35.335Z,0
2017-09-14T00:09:15.843Z,0
2017-09-14T00:09:56.347Z,0
2017-09-14T00:10:36.851Z,0
2017-09-14T00:11:17.363Z,0
2017-09-14T00:11:57.860Z,0
2017-09-14T00:12:38.357Z,0
2017-09-14T00:13:18.835Z,0
2017-09-14T00:13:59.332Z,0
2017-09-14T00:14:39.830Z,0
2017-09-14T00:15:20.333Z,0
2017-09-14T00:16:00.833Z,0
2017-09-14T00:16:41.366Z,0
2017-09-14T00:17:21.872Z,0
2017-09-14T00:18:02.395Z,0
2017-09-14T00:18:42.916Z,0
2017-09-14T00:19:23.393Z,0
2017-09-14T00:20:03.927Z,0
2017-09-14T00:20:44.402Z,0
2017-09-14T00:21:24.930Z,0
2017-09-14T00:22:05.409Z,0
2017-09-14T00:22:45.920Z,0
2017-09-14T00:23:26.422Z,0
2017-09-14T00:24:06.918Z,0
2017-09-14T00:24:47.400Z,0
2017-09-14T00:25:27.887Z,0
2017-09-14T00:26:08.429Z,0
2017-09-14T00:26:48.905Z,0
2017-09-14T00:27:29.387Z,0
2017-09-14T00:28:09.885Z,0
2017-09-14T00:28:50.417Z,0
2017-09-14T00:29:30.900Z,0
2017-09-14T00:30:11.424Z,0
2017-09-14T00:30:51.961Z,0
2017-09-14T00:31:32.463Z,0
2017-09-14T00:32:12.964Z,0
2017-09-14T00:32:53.467Z,0
2017-09-14T00:33:33.973Z,0
2017-09-14T00:34:14.510Z,0
2017-09-14T00:34:55.032Z,0
2017-09-14T00:35:35.536Z,0
2017-09-14T00:36:16.021Z,0
2017-09-14T00:36:56.558Z,0
2017-09-14T00:37:37.083Z,0
2017-09-14T00:38:17.597Z,0
2017-09-14T00:38:58.128Z,0
2017-09-14T00:39:38.619Z,0
2017-09-14T00:40:19.139Z,0
2017-09-14T00:40:59.620Z,0
2017-09-14T00:41:40.180Z,0
2017-09-14T00:42:20.656Z,0
2017-09-14T00:43:01.146Z,0
2017-09-14T00:43:41.644Z,0
2017-09-14T00:44:22.143Z,0
2017-09-14T00:45:02.714Z,0
2017-09-14T00:45:43.215Z,0
2017-09-14T00:46:23.689Z,0
2017-09-14T00:47:04.195Z,0
2017-09-14T00:47:44.709Z,0
2017-09-14T00:48:25.240Z,0
2017-09-14T00:49:05.743Z,0
2017-09-14T00:49:46.249Z,0
2017-09-14T00:50:26.748Z,0
2017-09-14T00:51:07.264Z,0
2017-09-14T00:51:47.766Z,0
2017-09-14T00:52:28.284Z,0
2017-09-14T00:53:08.808Z,0
2017-09-14T00:53:49.353Z,0
2017-09-14T00:54:29.871Z,0
2017-09-14T00:55:10.383Z,0
2017-09-14T00:55:50.903Z,0
2017-09-14T00:56:31.462Z,0
2017-09-14T00:57:11.950Z,0
2017-09-14T00:57:52.468Z,0
2017-09-14T00:58:32.977Z,0
2017-09-14T00:59:13.483Z,0
2017-09-14T00:59:53.966Z,0
2017-09-14T01:00:34.478Z,0
2017-09-14T01:01:14.985Z,0
2017-09-14T01:01:55.476Z,0
2017-09-14T01:02:35.966Z,0
2017-09-14T01:03:16.475Z,0
2017-09-14T01:03:56.975Z,0
2017-09-14T01:04:37.473Z,0
2017-09-14T01:05:17.981Z,0
2017-09-14T01:05:58.479Z,0
2017-09-14T01:06:38.988Z,0
2017-09-14T01:07:19.492Z,0
2017-09-14T01:07:59.993Z,0
2017-09-14T01:08:40.487Z,0
2017-09-14T01:09:21.043Z,0
2017-09-14T01:10:01.521Z,0
2017-09-14T01:10:42.022Z,0
2017-09-14T01:11:22.638Z,0
2017-09-14T01:12:03.084Z,0
2017-09-14T01:12:43.578Z,0
2017-09-14T01:13:24.083Z,0
2017-09-14T01:14:04.560Z,0
2017-09-14T01:14:45.072Z,0
2017-09-14T01:15:25.593Z,0
2017-09-14T01:16:06.062Z,0
2017-09-14T01:16:46.561Z,0
2017-09-14T01:17:27.071Z,0
2017-09-14T01:18:07.599Z,0
2017-09-14T01:18:48.059Z,0
2017-09-14T01:19:28.570Z,0
2017-09-14T01:20:09.062Z,0
2017-09-14T01:20:49.561Z,0
2017-09-14T01:21:30.038Z,0
2017-09-14T01:22:10.525Z,0
2017-09-14T01:22:51.055Z,0
2017-09-14T01:23:31.544Z,0
2017-09-14T01:24:12.038Z,0
2017-09-14T01:24:52.555Z,0
2017-09-14T01:25:33.065Z,0
2017-09-14T01:26:13.553Z,0
2017-09-14T01:26:54.060Z,0
2017-09-14T01:27:34.580Z,0
2017-09-14T01:28:15.057Z,0
2017-09-14T01:28:55.587Z,0
2017-09-14T01:29:36.096Z,0
2017-09-14T01:30:16.620Z,0
2017-09-14T01:30:57.099Z,0
2017-09-14T01:31:37.574Z,0
2017-09-14T01:32:18.071Z,0
2017-09-14T01:32:58.602Z,0
2017-09-14T01:33:39.131Z,0
2017-09-14T01:34:19.618Z,0
2017-09-14T01:35:00.167Z,0
2017-09-14T01:35:40.640Z,0
2017-09-14T01:36:21.165Z,0
2017-09-14T01:37:01.726Z,0
2017-09-14T01:37:42.235Z,0
2017-09-14T01:38:22.739Z,0
2017-09-14T01:39:03.231Z,0
2017-09-14T01:39:43.734Z,0
2017-09-14T01:40:24.254Z,0
2017-09-14T01:41:04.752Z,0
2017-09-14T01:41:45.264Z,0
2017-09-14T01:42:25.820Z,0
2017-09-14T01:43:06.364Z,0
2017-09-14T01:43:46.902Z,0
2017-09-14T01:44:27.450Z,0
2017-09-14T01:45:07.933Z,0
2017-09-14T01:45:48.456Z,0
2017-09-14T01:46:28.951Z,0
2017-09-14T01:47:09.462Z,0
2017-09-14T01:47:49.988Z,0
2017-09-14T01:48:30.495Z,0
2017-09-14T01:49:11.014Z,0
2017-09-14T01:49:51.521Z,0
2017-09-14T01:50:32.014Z,0
2017-09-14T01:51:12.531Z,0
2017-09-14T01:51:53.045Z,0
2017-09-14T01:52:33.558Z,0
2017-09-14T01:53:14.085Z,0
2017-09-14T01:53:54.595Z,0
2017-09-14T01:54:35.115Z,0
2017-09-14T01:55:15.655Z,0
2017-09-14T01:55:56.145Z,0
2017-09-14T01:56:36.637Z,0
2017-09-14T01:57:17.134Z,0
2017-09-14T01:57:57.656Z,0
2017-09-14T01:58:38.169Z,0
2017-09-14T01:59:18.667Z,0
2017-09-14T01:59:59.153Z,0
2017-09-14T02:00:39.658Z,0
2017-09-14T02:01:20.190Z,0
2017-09-14T02:02:00.740Z,0
2017-09-14T02:02:41.217Z,0
2017-09-14T02:03:21.761Z,0
2017-09-14T02:04:02.290Z,0
2017-09-14T02:04:42.804Z,0
2017-09-14T02:05:23.337Z,0
2017-09-14T02:06:03.859Z,0
2017-09-14T02:06:44.390Z,0
2017-09-14T02:07:24.890Z,0
2017-09-14T02:08:05.410Z,0
2017-09-14T02:08:45.927Z,0
2017-09-14T02:09:26.452Z,0
2017-09-14T02:10:06.988Z,0
2017-09-14T02:10:47.509Z,0
2017-09-14T02:11:28.012Z,0
2017-09-14T02:12:08.530Z,0
2017-09-14T02:12:49.034Z,0
2017-09-14T02:13:29.585Z,0
2017-09-14T02:14:10.106Z,0
2017-09-14T02:14:50.617Z,0
2017-09-14T02:15:31.168Z,0
2017-09-14T02:16:11.643Z,0
2017-09-14T02:16:52.153Z,0
2017-09-14T02:17:32.651Z,0
2017-09-14T02:18:13.167Z,0
2017-09-14T02:18:53.692Z,0
2017-09-14T02:19:34.177Z,0
2017-09-14T02:20:14.721Z,0
2017-09-14T02:20:55.269Z,0
2017-09-14T02:21:35.777Z,0
2017-09-14T02:22:16.292Z,0
2017-09-14T02:22:56.811Z,0
2017-09-14T02:23:37.366Z,0
2017-09-14T02:24:17.887Z,0
2017-09-14T02:24:58.401Z,0
2017-09-14T02:25:38.898Z,0
2017-09-14T02:26:19.385Z,0
2017-09-14T02:26:59.921Z,0
2017-09-14T02:27:40.438Z,0
2017-09-14T02:28:20.950Z,0
2017-09-14T02:29:01.461Z,0
2017-09-14T02:29:41.992Z,0
2017-09-14T02:30:22.532Z,0
2017-09-14T02:31:03.055Z,0
2017-09-14T02:31:43.573Z,0
2017-09-14T02:32:24.101Z,0
2017-09-14T02:33:04.631Z,0
2017-09-14T02:33:45.158Z,0
2017-09-14T02:34:25.685Z,0
2017-09-14T02:35:06.220Z,0
2017-09-14T02:35:46.741Z,0
2017-09-14T02:36:27.260Z,0
2017-09-14T02:37:07.797Z,0
2017-09-14T02:37:48.318Z,0
2017-09-14T02:38:28.873Z,0
2017-09-14T02:39:09.392Z,0
2017-09-14T02:39:49.905Z,0
2017-09-14T02:40:30.433Z,0
2017-09-14T02:41:10.970Z,0
2017-09-14T02:41:51.460Z,0
2017-09-14T02:42:31.966Z,0
2017-09-14T02:43:12.486Z,0
2017-09-14T02:43:52.976Z,0
2017-09-14T02:44:33.525Z,0
2017-09-14T02:45:14.054Z,0
2017-09-14T02:45:54.580Z,0
2017-09-14T02:46:35.080Z,0
2017-09-14T02:47:15.628Z,0
2017-09-14T02:47:56.145Z,0
2017-09-14T02:48:36.682Z,0
2017-09-14T02:49:17.209Z,0
2017-09-14T02:49:57.718Z,0
2017-09-14T02:50:38.258Z,0
2017-09-14T02:51:18.762Z,0
2017-09-14T02:51:59.293Z,0
2017-09-14T02:52:39.788Z,0
2017-09-14T02:53:20.286Z,0
2017-09-14T02:54:00.821Z,0
2017-09-14T02:54:41.292Z,0
2017-09-14T02:55:21.813Z,0
2017-09-14T02:56:02.334Z,0
2017-09-14T02:56:42.860Z,0
2017-09-14T02:57:23.375Z,0
2017-09-14T02:58:03.907Z,0
2017-09-14T02:58:44.426Z,0
2017-09-14T02:59:24.923Z,0
2017-09-14T03:00:05.465Z,0
2017-09-14T03:00:45.996Z,0
2017-09-14T03:01:26.526Z,0
2017-09-14T03:02:07.047Z,0
2017-09-14T03:02:47.572Z,0
2017-09-14T03:03:28.101Z,0
2017-09-14T03:04:08.615Z,0
2017-09-14T03:04:49.129Z,0
2017-09-14T03:05:29.669Z,0
2017-09-14T03:06:10.167Z,0
2017-09-14T03:06:50.675Z,0
2017-09-14T03:07:31.202Z,0
2017-09-14T03:08:11.723Z,0
2017-09-14T03:08:52.356Z,0
2017-09-14T03:09:32.920Z,0
2017-09-14T03:10:13.419Z,0
2017-09-14T03:10:53.958Z,0
2017-09-14T03:11:34.470Z,0
2017-09-14T03:12:14.989Z,0
2017-09-14T03:12:55.527Z,0
2017-09-14T03:13:36.059Z,0
2017-09-14T03:14:16.564Z,0
2017-09-14T03:14:57.072Z,0
2017-09-14T03:15:37.597Z,0
2017-09-14T03:16:18.113Z,0
2017-09-14T03:16:58.627Z,0
2017-09-14T03:17:39.219Z,0
2017-09-14T03:18:19.715Z,0
2017-09-14T03:19:00.218Z,0
2017-09-14T03:19:40.733Z,0
2017-09-14T03:20:21.259Z,0
2017-09-14T03:21:01.775Z,0
2017-09-14T03:21:42.287Z,0
2017-09-14T03:22:22.802Z,0
2017-09-14T03:23:03.363Z,0
2017-09-14T03:23:43.872Z,0
2017-09-14T03:24:24.386Z,0
2017-09-14T03:25:04.922Z,0
2017-09-14T03:25:45.458Z,0
2017-09-14T03:26:25.977Z,0
2017-09-14T03:27:06.485Z,0
2017-09-14T03:27:46.995Z,0
2017-09-14T03:28:27.487Z,0
2017-09-14T03:29:08.000Z,0
2017-09-14T03:29:48.512Z,0
2017-09-14T03:30:29.037Z,0
2017-09-14T03:31:09.559Z,0
2017-09-14T03:31:50.087Z,0
2017-09-14T03:32:30.593Z,0
2017-09-14T03:33:11.151Z,0
2017-09-14T03:33:51.664Z,0
2017-09-14T03:34:32.196Z,0
2017-09-14T03:35:12.723Z,0
2017-09-14T03:35:53.240Z,0
2017-09-14T03:36:33.756Z,0
2017-09-14T03:37:14.316Z,0
2017-09-14T03:37:54.843Z,0
2017-09-14T03:38:35.361Z,0
2017-09-14T03:39:15.870Z,0
2017-09-14T03:39:56.390Z,0
2017-09-14T03:40:36.909Z,0
2017-09-14T03:41:17.444Z,0
2017-09-14T03:41:57.994Z,0
2017-09-14T03:42:38.537Z,0
2017-09-14T03:43:19.073Z,0
2017-09-14T03:43:59.572Z,0
2017-09-14T03:44:40.084Z,0
2017-09-14T03:45:20.590Z,0
2017-09-14T03:46:01.108Z,0
2017-09-14T03:46:41.626Z,0
2017-09-14T03:47:22.123Z,0
2017-09-14T03:48:02.648Z,0
2017-09-14T03:48:43.167Z,0
2017-09-14T03:49:23.665Z,0
2017-09-14T03:50:04.239Z,0
2017-09-14T03:50:45.060Z,0
2017-09-14T03:51:25.585Z,0
2017-09-14T03:52:06.857Z,0
2017-09-14T03:52:47.399Z,0
2017-09-14T03:53:27.915Z,0
2017-09-14T03:54:08.442Z,0
2017-09-14T03:54:48.945Z,0
2017-09-14T03:55:29.457Z,0
2017-09-14T03:56:09.972Z,0
2017-09-14T03:56:50.515Z,0
2017-09-14T03:57:31.027Z,0
2017-09-14T03:58:11.522Z,0
2017-09-14T03:58:52.065Z,0
2017-09-14T03:59:32.574Z,0
2017-09-14T04:00:13.089Z,0
2017-09-14T04:00:53.621Z,0
2017-09-14T04:01:34.144Z,0
2017-09-14T04:02:14.662Z,0
2017-09-14T04:02:55.197Z,0
2017-09-14T04:03:35.714Z,0
2017-09-14T04:04:16.271Z,0
2017-09-14T04:04:56.765Z,0
2017-09-14T04:05:37.283Z,0
2017-09-14T04:06:17.820Z,0
2017-09-14T04:06:58.349Z,0
2017-09-14T04:07:38.877Z,0
2017-09-14T04:08:19.392Z,0
2017-09-14T04:08:59.932Z,0
2017-09-14T04:09:40.495Z,0
2017-09-14T04:10:20.993Z,0
2017-09-14T04:11:01.588Z,0
2017-09-14T04:11:42.129Z,0
2017-09-14T04:12:22.655Z,0
2017-09-14T04:13:03.166Z,0
2017-09-14T04:13:43.704Z,0
2017-09-14T04:14:24.236Z,0
2017-09-14T04:15:04.775Z,0
2017-09-14T04:15:45.310Z,0
2017-09-14T04:16:25.839Z,0
2017-09-14T04:17:06.343Z,0
2017-09-14T04:17:46.854Z,0
2017-09-14T04:18:27.353Z,0
2017-09-14T04:19:07.890Z,0
2017-09-14T04:19:48.427Z,0
2017-09-14T04:20:28.954Z,0
2017-09-14T04:21:09.556Z,0
2017-09-14T04:21:50.294Z,0
2017-09-14T04:22:30.835Z,0
2017-09-14T04:23:11.337Z,0
2017-09-14T04:23:51.880Z,0
2017-09-14T04:24:32.400Z,0
2017-09-14T04:25:12.922Z,0
2017-09-14T04:25:53.449Z,0
2017-09-14T04:26:33.963Z,0
2017-09-14T04:27:14.489Z,0
2017-09-14T04:27:54.986Z,0
2017-09-14T04:28:35.510Z,0
2017-09-14T04:29:16.038Z,0
2017-09-14T04:29:56.593Z,0
2017-09-14T04:30:37.110Z,0
2017-09-14T04:31:17.668Z,0
2017-09-14T04:31:58.194Z,0
2017-09-14T04:32:38.702Z,0
2017-09-14T04:33:19.242Z,0
2017-09-14T04:33:59.768Z,0
2017-09-14T04:34:40.284Z,0
2017-09-14T04:35:20.822Z,0
2017-09-14T04:36:01.344Z,0
2017-09-14T04:36:41.875Z,0
2017-09-14T04:37:22.400Z,0
2017-09-14T04:38:02.932Z,0
2017-09-14T04:38:43.443Z,0
2017-09-14T04:39:23.932Z,0
2017-09-14T04:40:04.452Z,0
2017-09-14T04:40:44.964Z,0
2017-09-14T04:41:25.478Z,0
2017-09-14T04:42:05.995Z,0
2017-09-14T04:42:46.517Z,0
2017-09-14T04:43:27.047Z,0
2017-09-14T04:44:07.569Z,0
2017-09-14T04:44:48.093Z,0
2017-09-14T04:45:28.677Z,0
2017-09-14T04:46:09.204Z,0
2017-09-14T04:46:49.695Z,0
2017-09-14T04:47:30.211Z,0
2017-09-14T04:48:10.731Z,0
2017-09-14T04:48:51.309Z,0
2017-09-14T04:49:31.833Z,0
2017-09-14T04:50:12.357Z,0
2017-09-14T04:50:52.879Z,0
2017-09-14T04:51:33.403Z,0
2017-09-14T04:52:13.907Z,0
2017-09-14T04:52:55.229Z,0
2017-09-14T04:53:35.651Z,0
2017-09-14T04:54:16.202Z,0
2017-09-14T04:54:56.685Z,0
2017-09-14T04:55:37.235Z,0
2017-09-14T04:56:17.750Z,0
2017-09-14T04:56:58.270Z,0
2017-09-14T04:57:38.800Z,0
2017-09-14T04:58:19.301Z,0
2017-09-14T04:58:59.870Z,0
2017-09-14T04:59:40.404Z,0
2017-09-14T05:00:20.980Z,0
2017-09-14T05:01:01.548Z,0
2017-09-14T05:01:42.067Z,0
2017-09-14T05:02:22.582Z,0
2017-09-14T05:03:03.118Z,0
2017-09-14T05:03:43.628Z,0
2017-09-14T05:04:24.164Z,0
2017-09-14T05:05:04.679Z,0
2017-09-14T05:05:45.196Z,0
2017-09-14T05:06:25.738Z,0
2017-09-14T05:07:06.255Z,0
2017-09-14T05:07:46.788Z,0
2017-09-14T05:08:27.316Z,0
2017-09-14T05:09:07.866Z,0
2017-09-14T05:09:48.377Z,0
2017-09-14T05:10:28.904Z,0
2017-09-14T05:11:09.425Z,0
2017-09-14T05:11:49.943Z,0
2017-09-14T05:12:30.474Z,0
2017-09-14T05:13:10.997Z,0
2017-09-14T05:13:51.497Z,0
2017-09-14T05:14:32.009Z,0
2017-09-14T05:15:12.514Z,0
2017-09-14T05:15:53.029Z,0
2017-09-14T05:16:33.543Z,0
2017-09-14T05:17:14.056Z,0
2017-09-14T05:17:54.582Z,0
2017-09-14T05:18:35.091Z,0
2017-09-14T05:19:15.616Z,0
2017-09-14T05:19:56.155Z,0
2017-09-14T05:20:36.660Z,0
2017-09-14T05:21:17.176Z,0
2017-09-14T05:21:57.682Z,0
2017-09-14T05:22:38.199Z,0
2017-09-14T05:23:18.690Z,0
2017-09-14T05:23:59.222Z,0
2017-09-14T05:24:39.727Z,5
2017-09-14T05:25:20.242Z,5
2017-09-14T05:26:00.766Z,5
2017-09-14T05:26:41.298Z,5
2017-09-14T05:27:21.799Z,5
2017-09-14T05:28:02.328Z,5
2017-09-14T05:28:42.830Z,5
2017-09-14T05:29:23.346Z,5
2017-09-14T05:30:03.837Z,5
2017-09-14T05:30:44.361Z,5
2017-09-14T05:31:24.882Z,5
2017-09-14T05:32:06.172Z,5
2017-09-14T05:32:46.710Z,5
2017-09-14T05:33:27.242Z,5
2017-09-14T05:34:07.758Z,5
2017-09-14T05:34:48.264Z,5
2017-09-14T05:35:28.779Z,5
2017-09-14T05:36:09.336Z,5
2017-09-14T05:36:49.843Z,5
2017-09-14T05:37:30.349Z,5
2017-09-14T05:38:10.878Z,5
2017-09-14T05:38:51.391Z,5
2017-09-14T05:39:31.905Z,5
2017-09-14T05:40:12.445Z,5
2017-09-14T05:40:52.981Z,5
2017-09-14T05:41:33.495Z,5
2017-09-14T05:42:14.001Z,5
2017-09-14T05:42:54.571Z,5
2017-09-14T05:43:35.029Z,5
2017-09-14T05:44:15.534Z,10
2017-09-14T05:44:56.077Z,10
2017-09-14T05:45:36.596Z,10
2017-09-14T05:46:17.106Z,10
2017-09-14T05:46:57.690Z,10
2017-09-14T05:47:38.198Z,10
2017-09-14T05:48:18.748Z,10
2017-09-14T05:48:59.286Z,10
2017-09-14T05:49:39.836Z,10
2017-09-14T05:50:20.337Z,10
2017-09-14T05:51:00.854Z,10
2017-09-14T05:51:41.419Z,10
2017-09-14T05:52:21.921Z,10
2017-09-14T05:53:02.452Z,5
2017-09-14T05:53:42.971Z,5
2017-09-14T05:54:23.495Z,5
2017-09-14T05:55:03.999Z,5
2017-09-14T05:55:44.526Z,5
2017-09-14T05:56:25.049Z,5
2017-09-14T05:57:05.562Z,10
2017-09-14T05:57:46.078Z,10
2017-09-14T05:58:26.619Z,10
2017-09-14T05:59:07.237Z,10
2017-09-14T05:59:47.816Z,10
2017-09-14T06:00:28.355Z,10
2017-09-14T06:01:08.870Z,15
2017-09-14T06:01:49.410Z,15
2017-09-14T06:02:30.061Z,20
2017-09-14T06:03:10.748Z,20
2017-09-14T06:03:51.239Z,20
2017-09-14T06:04:31.821Z,20
2017-09-14T06:05:12.335Z,20
2017-09-14T06:05:53.169Z,20
2017-09-14T06:06:33.669Z,20
2017-09-14T06:07:14.266Z,20
2017-09-14T06:07:54.776Z,25
2017-09-14T06:08:35.401Z,25
2017-09-14T06:09:15.986Z,25
2017-09-14T06:09:56.497Z,25
2017-09-14T06:10:37.047Z,25
2017-09-14T06:11:17.534Z,25
2017-09-14T06:11:58.040Z,25
2017-09-14T06:12:38.810Z,25
2017-09-14T06:13:19.382Z,20
2017-09-14T06:13:59.901Z,15
2017-09-14T06:14:40.419Z,15
2017-09-14T06:15:20.938Z,15
2017-09-14T06:16:01.446Z,15
2017-09-14T06:16:42.092Z,15
2017-09-14T06:17:22.806Z,15
2017-09-14T06:18:03.312Z,15
2017-09-14T06:18:43.812Z,15
2017-09-14T06:19:24.312Z,15
2017-09-14T06:20:04.952Z,15
2017-09-14T06:20:45.453Z,15
2017-09-14T06:21:25.955Z,15
2017-09-14T06:22:06.479Z,15
2017-09-14T06:22:47.030Z,10
2017-09-14T06:23:27.573Z,15
2017-09-14T06:24:08.085Z,15
2017-09-14T06:24:48.604Z,15
2017-09-14T06:25:29.145Z,20
2017-09-14T06:26:09.656Z,30
2017-09-14T06:26:50.170Z,30
2017-09-14T06:27:30.676Z,30
2017-09-14T06:28:11.191Z,25
2017-09-14T06:28:51.717Z,25
2017-09-14T06:29:32.234Z,25
2017-09-14T06:30:12.755Z,30
2017-09-14T06:30:53.271Z,35
2017-09-14T06:31:33.810Z,40
2017-09-14T06:32:14.318Z,35
2017-09-14T06:32:54.833Z,35
2017-09-14T06:33:35.359Z,30
2017-09-14T06:34:15.898Z,30
2017-09-14T06:34:56.418Z,25
2017-09-14T06:35:36.941Z,25
2017-09-14T06:36:17.452Z,30
2017-09-14T06:36:57.990Z,30
2017-09-14T06:37:38.508Z,30
2017-09-14T06:38:19.024Z,30
2017-09-14T06:38:59.541Z,30
2017-09-14T06:39:40.041Z,30
2017-09-14T06:40:20.567Z,30
2017-09-14T06:41:01.129Z,25
2017-09-14T06:41:41.648Z,30
2017-09-14T06:42:22.169Z,30
2017-09-14T06:43:02.683Z,25
2017-09-14T06:43:43.208Z,20
2017-09-14T06:44:23.716Z,15
2017-09-14T06:45:04.235Z,15
2017-09-14T06:45:44.772Z,15
2017-09-14T06:46:25.290Z,15
2017-09-14T06:47:05.819Z,10
2017-09-14T06:47:46.330Z,10
2017-09-14T06:48:26.872Z,15
2017-09-14T06:49:07.409Z,15
2017-09-14T06:49:47.938Z,25
2017-09-14T06:50:28.461Z,35
2017-09-14T06:51:08.985Z,45
2017-09-14T06:51:49.530Z,50
2017-09-14T06:52:30.042Z,45
2017-09-14T06:53:10.576Z,35
2017-09-14T06:53:51.088Z,30
2017-09-14T06:54:31.600Z,30
2017-09-14T06:55:12.115Z,25
2017-09-14T06:55:52.636Z,25
2017-09-14T06:56:33.162Z,25
2017-09-14T06:57:13.708Z,30
2017-09-14T06:57:54.211Z,30
2017-09-14T06:58:34.751Z,30
2017-09-14T06:59:15.278Z,30
2017-09-14T06:59:55.812Z,30
2017-09-14T07:00:36.341Z,35
2017-09-14T07:01:16.861Z,35
2017-09-14T07:01:57.377Z,35
2017-09-14T07:02:37.899Z,35
2017-09-14T07:03:18.438Z,35
2017-09-14T07:03:58.959Z,40
2017-09-14T07:04:39.480Z,50
2017-09-14T07:05:20.020Z,50
2017-09-14T07:06:00.569Z,55
2017-09-14T07:06:41.101Z,65
2017-09-14T07:07:21.607Z,65
2017-09-14T07:08:02.137Z,75
2017-09-14T07:08:42.656Z,70
2017-09-14T07:09:23.242Z,65
2017-09-14T07:10:03.755Z,60
2017-09-14T07:10:44.272Z,60
2017-09-14T07:11:24.801Z,70
2017-09-14T07:12:05.300Z,75
2017-09-14T07:12:45.815Z,90
2017-09-14T07:13:26.351Z,90
2017-09-14T07:14:06.870Z,80
2017-09-14T07:14:47.393Z,65
2017-09-14T07:15:27.921Z,45
2017-09-14T07:16:08.429Z,40
2017-09-14T07:16:48.959Z,35
2017-09-14T07:17:29.503Z,35
2017-09-14T07:18:10.033Z,40
2017-09-14T07:18:50.567Z,50
2017-09-14T07:19:31.089Z,65
2017-09-14T07:20:11.606Z,65
2017-09-14T07:20:52.112Z,55
2017-09-14T07:21:32.654Z,45
2017-09-14T07:22:13.173Z,35
2017-09-14T07:22:53.708Z,35
2017-09-14T07:23:34.217Z,35
2017-09-14T07:24:14.730Z,45
2017-09-14T07:24:55.255Z,50
2017-09-14T07:25:35.761Z,50
2017-09-14T07:26:16.278Z,50
2017-09-14T07:26:56.833Z,50
2017-09-14T07:27:37.350Z,50
2017-09-14T07:28:17.891Z,50
2017-09-14T07:28:58.421Z,45
2017-09-14T07:29:38.985Z,40
2017-09-14T07:30:19.498Z,30
2017-09-14T07:31:00.019Z,30
2017-09-14T07:31:40.554Z,30
2017-09-14T07:32:21.064Z,40
2017-09-14T07:33:01.568Z,50
2017-09-14T07:33:42.110Z,55
2017-09-14T07:34:22.643Z,60
2017-09-14T07:35:03.167Z,70
2017-09-14T07:35:43.703Z,70
2017-09-14T07:36:24.246Z,75
2017-09-14T07:37:04.767Z,70
2017-09-14T07:37:45.303Z,65
2017-09-14T07:38:25.821Z,50
2017-09-14T07:39:06.326Z,35
2017-09-14T07:39:46.863Z,30
2017-09-14T07:40:27.384Z,35
2017-09-14T07:41:07.918Z,55
2017-09-14T07:41:48.444Z,70
2017-09-14T07:42:28.972Z,75
2017-09-14T07:43:09.488Z,80
2017-09-14T07:43:50.005Z,85
2017-09-14T07:44:30.545Z,90
2017-09-14T07:45:11.097Z,90
2017-09-14T07:45:51.624Z,90
2017-09-14T07:46:32.158Z,85
2017-09-14T07:47:12.691Z,75
2017-09-14T07:47:53.209Z,75
2017-09-14T07:48:33.751Z,75
2017-09-14T07:49:14.264Z,70
2017-09-14T07:49:54.785Z,60
2017-09-14T07:50:35.300Z,55
2017-09-14T07:51:15.897Z,45
2017-09-14T07:51:56.355Z,45
2017-09-14T07:52:36.888Z,55
2017-09-14T07:53:17.426Z,50
2017-09-14T07:53:57.945Z,65
2017-09-14T07:54:38.477Z,70
2017-09-14T07:55:19.002Z,60
2017-09-14T07:55:59.531Z,55
2017-09-14T07:56:40.056Z,65
2017-09-14T07:57:20.575Z,70
2017-09-14T07:58:01.081Z,60
2017-09-14T07:58:41.605Z,55
2017-09-14T07:59:22.175Z,70
2017-09-14T08:00:02.719Z,100
2017-09-14T08:00:43.211Z,115
2017-09-14T08:01:23.743Z,110
2017-09-14T08:02:04.261Z,110
2017-09-14T08:02:44.814Z,100
2017-09-14T08:03:25.349Z,95
2017-09-14T08:04:05.879Z,90
2017-09-14T08:04:46.391Z,90
2017-09-14T08:05:26.936Z,100
2017-09-14T08:06:07.461Z,105
2017-09-14T08:06:47.984Z,115
2017-09-14T08:07:28.517Z,110
2017-09-14T08:08:09.034Z,110
2017-09-14T08:08:49.566Z,110
2017-09-14T08:09:30.092Z,110
2017-09-14T08:10:10.609Z,115
2017-09-14T08:10:51.129Z,130
2017-09-14T08:11:31.678Z,140
2017-09-14T08:12:12.223Z,150
2017-09-14T08:12:52.751Z,155
2017-09-14T08:13:33.275Z,160
2017-09-14T08:14:13.805Z,170
2017-09-14T08:14:54.329Z,190
2017-09-14T08:15:34.854Z,225
2017-09-14T08:16:15.351Z,235
2017-09-14T08:16:55.904Z,220
2017-09-14T08:17:36.426Z,255
2017-09-14T08:18:16.968Z,305
2017-09-14T08:18:57.484Z,285
2017-09-14T08:19:38.009Z,255
2017-09-14T08:20:18.537Z,245
2017-09-14T08:20:59.061Z,225
2017-09-14T08:21:39.592Z,205
2017-09-14T08:22:20.108Z,190
2017-09-14T08:23:00.641Z,185
2017-09-14T08:23:41.177Z,180
2017-09-14T08:24:21.703Z,170
2017-09-14T08:25:02.236Z,170
2017-09-14T08:25:42.755Z,170
2017-09-14T08:26:23.278Z,170
2017-09-14T08:27:03.813Z,170
2017-09-14T08:27:44.354Z,165
2017-09-14T08:28:24.877Z,145
2017-09-14T08:29:05.413Z,135
2017-09-14T08:29:45.935Z,125
2017-09-14T08:30:26.451Z,115
2017-09-14T08:31:06.964Z,105
2017-09-14T08:31:47.508Z,105
2017-09-14T08:32:28.043Z,110
2017-09-14T08:33:08.559Z,120
2017-09-14T08:33:49.093Z,120
2017-09-14T08:34:29.619Z,130
2017-09-14T08:35:10.156Z,150
2017-09-14T08:35:50.674Z,170
2017-09-14T08:36:31.202Z,195
2017-09-14T08:37:11.734Z,210
2017-09-14T08:37:52.258Z,220
2017-09-14T08:38:32.793Z,215
2017-09-14T08:39:13.324Z,210
2017-09-14T08:39:53.867Z,205
2017-09-14T08:40:34.395Z,205
2017-09-14T08:41:14.917Z,215
2017-09-14T08:41:55.445Z,220
2017-09-14T08:42:35.956Z,225
2017-09-14T08:43:16.465Z,230
2017-09-14T08:43:56.981Z,240
2017-09-14T08:44:37.500Z,240
2017-09-14T08:45:18.025Z,240
2017-09-14T08:45:58.547Z,245
2017-09-14T08:46:39.067Z,265
2017-09-14T08:47:19.653Z,295
2017-09-14T08:48:00.127Z,340
2017-09-14T08:48:40.668Z,375
2017-09-14T08:49:21.189Z,395
2017-09-14T08:50:01.738Z,395
2017-09-14T08:50:42.262Z,415
2017-09-14T08:51:22.786Z,445
2017-09-14T08:52:03.301Z,445
2017-09-14T08:52:43.827Z,450
2017-09-14T08:53:24.356Z,550
2017-09-14T08:54:04.858Z,900
2017-09-14T08:54:45.385Z,840
2017-09-14T08:55:25.925Z,1400
2017-09-14T08:56:06.484Z,940
2017-09-14T08:56:47.008Z,715
2017-09-14T08:57:27.533Z,510
2017-09-14T08:58:08.054Z,475
2017-09-14T08:58:48.585Z,390
2017-09-14T08:59:29.112Z,365
2017-09-14T09:00:09.642Z,395
2017-09-14T09:00:50.169Z,485
2017-09-14T09:01:30.695Z,410
2017-09-14T09:02:11.208Z,385
2017-09-14T09:02:51.727Z,410
2017-09-14T09:03:32.254Z,490
2017-09-14T09:04:12.784Z,435
2017-09-14T09:04:53.309Z,385
2017-09-14T09:05:33.816Z,305
2017-09-14T09:06:14.350Z,265
2017-09-14T09:06:54.890Z,275
2017-09-14T09:07:35.416Z,310
2017-09-14T09:08:15.958Z,315
2017-09-14T09:08:56.479Z,375
2017-09-14T09:09:36.989Z,2250
2017-09-14T09:10:17.500Z,360
2017-09-14T09:10:58.023Z,395
2017-09-14T09:11:38.539Z,935
2017-09-14T09:12:19.068Z,510
2017-09-14T09:12:59.612Z,400
2017-09-14T09:13:40.140Z,450
2017-09-14T09:14:20.672Z,370
2017-09-14T09:15:01.198Z,300
2017-09-14T09:15:41.772Z,255
2017-09-14T09:16:22.302Z,275
2017-09-14T09:17:02.836Z,315
2017-09-14T09:17:43.370Z,365
2017-09-14T09:18:23.914Z,355
2017-09-14T09:19:04.433Z,355
2017-09-14T09:19:44.950Z,360
2017-09-14T09:20:25.489Z,295
2017-09-14T09:21:06.016Z,190
2017-09-14T09:21:46.521Z,135
2017-09-14T09:22:27.071Z,150
2017-09-14T09:23:07.604Z,170
2017-09-14T09:23:48.119Z,210
2017-09-14T09:24:28.642Z,185
2017-09-14T09:25:09.175Z,150
2017-09-14T09:25:49.695Z,170
2017-09-14T09:26:30.227Z,155
2017-09-14T09:27:10.745Z,135
2017-09-14T09:27:51.251Z,160
2017-09-14T09:28:31.794Z,180
2017-09-14T09:29:12.331Z,210
2017-09-14T09:29:52.885Z,240
2017-09-14T09:30:33.382Z,275
2017-09-14T09:31:13.919Z,325
2017-09-14T09:31:54.450Z,310
2017-09-14T09:32:34.976Z,375
2017-09-14T09:33:15.500Z,365
2017-09-14T09:33:56.021Z,415
2017-09-14T09:34:36.549Z,390
2017-09-14T09:35:17.095Z,305
2017-09-14T09:35:57.610Z,215
2017-09-14T09:36:38.124Z,230
2017-09-14T09:37:18.655Z,230
2017-09-14T09:37:59.183Z,215
2017-09-14T09:38:39.714Z,170
2017-09-14T09:39:20.255Z,145
2017-09-14T09:40:00.785Z,170
2017-09-14T09:40:41.315Z,170
2017-09-14T09:41:21.845Z,170
2017-09-14T09:42:02.352Z,185
2017-09-14T09:42:42.880Z,215
2017-09-14T09:43:23.408Z,285
2017-09-14T09:44:03.944Z,235
2017-09-14T09:44:44.487Z,255
2017-09-14T09:45:24.996Z,205
2017-09-14T09:46:05.526Z,175
2017-09-14T09:46:46.055Z,155